Time;durP1;ratioP1;P1;durP2;ratioP2;P2;SDS_P1;SDS_P2;PMS_P1;PMS_P2;Temp;Humidity;BMP_temperature;BMP_pressure;BME280_temperature;BME280_humidity;BME280_pressure;Samples;Min_cycle;Max_cycle;Signal;HPM_P1;HPM_P2
2024/02/19 00:01:52;;;;;;;0.40;0.40;;;21.20;46.40;;;;;;10351936;28;20042;-57
2024/02/19 00:06:54;;;;;;;0.40;0.40;;;21.10;46.80;;;;;;10353137;28;20524;-53
2024/02/19 00:11:56;;;;;;;0.90;0.38;;;21.10;46.80;;;;;;10351469;28;20046;-54
2024/02/19 00:16:58;;;;;;;1.02;0.40;;;21.00;47.00;;;;;;10353096;28;20534;-55
2024/02/19 00:21:59;;;;;;;0.32;0.32;;;20.90;47.00;;;;;;10354011;28;20056;-56
2024/02/19 00:27:03;;;;;;;0.40;0.40;;;21.00;46.90;;;;;;10316816;28;1017370;-55
2024/02/19 00:32:04;;;;;;;0.38;0.38;;;20.90;47.00;;;;;;10352989;28;20042;-56
2024/02/19 00:37:06;;;;;;;0.40;0.40;;;20.90;47.00;;;;;;10353901;28;20053;-55
2024/02/19 00:42:09;;;;;;;0.40;0.40;;;20.90;47.00;;;;;;10350322;28;20049;-58
2024/02/19 00:47:12;;;;;;;0.40;0.40;;;20.90;47.00;;;;;;10352038;28;20097;-55
2024/02/19 00:52:13;;;;;;;0.50;0.50;;;20.80;46.90;;;;;;10353271;28;20583;-54
2024/02/19 00:57:16;;;;;;;0.40;0.40;;;20.80;46.90;;;;;;10349740;28;20498;-53
2024/02/19 01:02:18;;;;;;;0.30;0.30;;;20.80;46.90;;;;;;10353122;28;20077;-53
2024/02/19 01:07:20;;;;;;;0.38;0.38;;;20.80;47.00;;;;;;10352581;28;20100;-55
2024/02/19 01:12:24;;;;;;;0.40;0.40;;;20.80;47.20;;;;;;10350608;28;20050;-57
2024/02/19 01:17:25;;;;;;;0.30;0.30;;;20.70;47.00;;;;;;10351646;28;20049;-52
2024/02/19 01:22:28;;;;;;;0.30;0.30;;;20.60;47.30;;;;;;10346009;28;20042;-55
2024/02/19 01:27:33;;;;;;;0.43;0.40;;;20.70;47.20;;;;;;10350021;28;20054;-53
2024/02/19 01:32:36;;;;;;;0.40;0.40;;;20.60;47.30;;;;;;10355690;28;20080;-51
2024/02/19 01:37:39;;;;;;;0.40;0.40;;;20.70;46.90;;;;;;10355694;28;20042;-57
2024/02/19 01:42:42;;;;;;;0.40;0.40;;;20.50;47.30;;;;;;10357299;28;20053;-57
2024/02/19 01:47:44;;;;;;;0.30;0.30;;;20.60;47.20;;;;;;10351708;28;20050;-54
2024/02/19 01:52:45;;;;;;;0.30;0.30;;;20.70;47.10;;;;;;10354374;28;20046;-55
2024/02/19 01:57:49;;;;;;;0.30;0.30;;;20.60;47.00;;;;;;10345938;28;20049;-54
2024/02/19 02:02:51;;;;;;;0.40;0.40;;;20.60;47.10;;;;;;10343443;28;20047;-58
2024/02/19 02:07:53;;;;;;;0.30;0.30;;;20.60;47.00;;;;;;10345799;28;20060;-51
2024/02/19 02:12:56;;;;;;;0.30;0.30;;;20.60;46.90;;;;;;10354165;28;20508;-55
2024/02/19 02:17:57;;;;;;;0.30;0.30;;;20.50;47.20;;;;;;10351532;28;20050;-54
2024/02/19 02:22:59;;;;;;;0.32;0.32;;;20.40;47.20;;;;;;10348406;28;20084;-54
2024/02/19 02:28:02;;;;;;;0.52;0.40;;;20.50;47.10;;;;;;10340105;28;20141;-57
2024/02/19 02:33:04;;;;;;;0.30;0.30;;;20.40;47.30;;;;;;10338985;28;20142;-56
2024/02/19 02:38:06;;;;;;;0.30;0.30;;;20.30;47.40;;;;;;10347637;28;20140;-52
2024/02/19 02:43:09;;;;;;;0.35;0.35;;;20.20;47.50;;;;;;10352310;28;20700;-56
2024/02/19 02:48:10;;;;;;;0.30;0.30;;;20.30;47.50;;;;;;10349524;28;20465;-55
2024/02/19 02:53:12;;;;;;;0.30;0.30;;;20.20;47.50;;;;;;10357914;28;20128;-54
2024/02/19 02:58:15;;;;;;;0.35;0.32;;;20.20;47.60;;;;;;10354128;28;20096;-55
2024/02/19 03:03:17;;;;;;;0.20;0.20;;;20.30;47.50;;;;;;10349444;28;20081;-55
2024/02/19 03:08:18;;;;;;;0.30;0.30;;;20.20;47.50;;;;;;10346378;28;20042;-54
2024/02/19 03:13:21;;;;;;;0.20;0.20;;;20.10;47.60;;;;;;10345524;28;20056;-53
2024/02/19 03:18:23;;;;;;;0.65;0.40;;;20.10;47.50;;;;;;10351466;28;20052;-54
2024/02/19 03:23:24;;;;;;;0.75;0.40;;;20.10;47.50;;;;;;10356512;28;20073;-53
2024/02/19 03:28:28;;;;;;;0.30;0.30;;;20.10;47.60;;;;;;10355580;28;20045;-54
2024/02/19 03:33:30;;;;;;;0.30;0.30;;;20.00;47.60;;;;;;10353705;28;20104;-53
2024/02/19 03:38:31;;;;;;;0.30;0.30;;;20.00;47.60;;;;;;10354024;28;20060;-57
2024/02/19 03:43:34;;;;;;;0.22;0.22;;;20.00;47.50;;;;;;10348770;28;20136;-55
2024/02/19 03:48:37;;;;;;;0.47;0.30;;;20.00;47.60;;;;;;10350994;28;20073;-54
2024/02/19 03:53:38;;;;;;;0.43;0.30;;;20.10;47.30;;;;;;10352668;28;20083;-55
2024/02/19 03:58:41;;;;;;;0.20;0.20;;;20.00;47.30;;;;;;10357003;28;20056;-54
2024/02/19 04:03:43;;;;;;;0.20;0.20;;;20.10;47.50;;;;;;10357915;28;20460;-56
2024/02/19 04:08:44;;;;;;;0.28;0.28;;;20.00;47.40;;;;;;10364158;28;20371;-54
2024/02/19 04:13:47;;;;;;;0.40;0.40;;;19.50;48.70;;;;;;10358673;28;20415;-53
2024/02/19 04:18:49;;;;;;;0.30;0.30;;;19.70;48.90;;;;;;10354105;28;20136;-56
2024/02/19 04:23:51;;;;;;;0.30;0.30;;;20.20;48.00;;;;;;10356486;28;20137;-53
2024/02/19 04:28:56;;;;;;;0.30;0.30;;;20.30;48.10;;;;;;10357064;28;20046;-55
2024/02/19 04:33:57;;;;;;;0.30;0.30;;;20.60;47.90;;;;;;10355480;28;20203;-60
2024/02/19 04:38:59;;;;;;;0.30;0.30;;;20.70;47.40;;;;;;10356563;28;20052;-51
2024/02/19 04:44:02;;;;;;;0.20;0.20;;;20.80;47.20;;;;;;10352955;28;20602;-56
2024/02/19 04:49:04;;;;;;;0.30;0.30;;;20.80;46.90;;;;;;10352457;28;20046;-54
2024/02/19 04:54:05;;;;;;;0.20;0.20;;;20.90;46.90;;;;;;10353273;28;20054;-56
2024/02/19 04:59:08;;;;;;;0.20;0.20;;;20.80;46.90;;;;;;10353764;28;20137;-58
2024/02/19 05:04:11;;;;;;;0.47;0.30;;;20.90;47.00;;;;;;10352892;28;20048;-59
2024/02/19 05:09:13;;;;;;;0.20;0.20;;;20.90;47.00;;;;;;10349372;28;20528;-55
2024/02/19 05:14:16;;;;;;;0.25;0.25;;;20.80;46.90;;;;;;10358095;28;20108;-55
2024/02/19 05:19:17;;;;;;;0.30;0.30;;;20.90;47.00;;;;;;10361993;28;20064;-58
2024/02/19 05:24:19;;;;;;;0.35;0.30;;;20.80;47.10;;;;;;10356682;28;20044;-56
2024/02/19 05:29:22;;;;;;;0.30;0.30;;;21.00;47.30;;;;;;10352740;28;20049;-55
2024/02/19 05:34:23;;;;;;;0.30;0.30;;;21.00;47.00;;;;;;10355726;28;20050;-57
2024/02/19 05:39:25;;;;;;;0.20;0.20;;;20.90;47.30;;;;;;10357065;28;20050;-56
2024/02/19 05:44:29;;;;;;;0.30;0.30;;;20.80;47.60;;;;;;10355975;28;20683;-57
2024/02/19 05:49:30;;;;;;;0.32;0.20;;;20.90;47.50;;;;;;10354296;28;20559;-56
2024/02/19 05:54:32;;;;;;;0.20;0.20;;;21.00;47.20;;;;;;10353356;28;20054;-53
2024/02/19 05:59:35;;;;;;;0.30;0.30;;;21.10;47.30;;;;;;10349417;28;20496;-58
2024/02/19 06:04:37;;;;;;;0.28;0.28;;;21.10;47.20;;;;;;10351146;28;20496;-54
2024/02/19 06:09:39;;;;;;;0.20;0.20;;;21.00;47.40;;;;;;10356685;28;20489;-54
2024/02/19 06:14:42;;;;;;;0.40;0.30;;;21.20;47.30;;;;;;10356874;28;20046;-62
2024/02/19 06:19:44;;;;;;;0.20;0.20;;;21.30;46.80;;;;;;10353672;28;20050;-59
2024/02/19 06:24:46;;;;;;;0.20;0.20;;;21.30;46.80;;;;;;10347688;28;20488;-54
2024/02/19 06:29:49;;;;;;;0.38;0.30;;;21.50;46.50;;;;;;10359090;28;20528;-53
2024/02/19 06:34:51;;;;;;;0.20;0.20;;;21.40;46.40;;;;;;10360627;28;20132;-57
2024/02/19 06:39:52;;;;;;;0.30;0.30;;;21.50;46.40;;;;;;10355311;28;20056;-57
2024/02/19 06:44:55;;;;;;;0.20;0.20;;;21.40;46.60;;;;;;10363735;28;20951;-58
2024/02/19 06:49:57;;;;;;;0.20;0.20;;;21.50;46.60;;;;;;10359099;28;20084;-56
2024/02/19 06:54:58;;;;;;;0.20;0.20;;;21.40;46.70;;;;;;10357216;28;20133;-59
2024/02/19 07:00:01;;;;;;;0.28;0.28;;;21.30;46.60;;;;;;10361687;28;20077;-58
2024/02/19 07:05:05;;;;;;;0.30;0.30;;;21.40;46.70;;;;;;10361752;28;20082;-59
2024/02/19 07:10:07;;;;;;;0.20;0.20;;;21.30;47.40;;;;;;10362632;28;20046;-59
2024/02/19 07:15:10;;;;;;;0.20;0.20;;;21.30;46.80;;;;;;10368962;28;20054;-58
2024/02/19 07:20:12;;;;;;;0.30;0.30;;;21.30;46.60;;;;;;10367529;28;20050;-59
2024/02/19 07:25:14;;;;;;;0.20;0.20;;;21.30;46.70;;;;;;10362638;28;20049;-59
2024/02/19 07:30:17;;;;;;;0.20;0.20;;;21.40;46.60;;;;;;10360332;28;20052;-59
2024/02/19 07:35:18;;;;;;;0.28;0.28;;;21.30;46.60;;;;;;10360026;28;20134;-55
2024/02/19 07:40:21;;;;;;;0.20;0.20;;;21.30;46.60;;;;;;10362379;28;20130;-58
2024/02/19 07:45:24;;;;;;;0.30;0.30;;;21.30;46.50;;;;;;10363159;28;20060;-59
2024/02/19 07:50:25;;;;;;;0.40;0.30;;;21.30;46.60;;;;;;10362595;28;20049;-58
2024/02/19 07:55:28;;;;;;;0.30;0.30;;;21.40;46.50;;;;;;10365593;28;20121;-59
2024/02/19 08:00:31;;;;;;;0.20;0.20;;;21.30;46.40;;;;;;10365809;28;20050;-59
2024/02/19 08:05:33;;;;;;;0.43;0.30;;;21.30;46.60;;;;;;10357709;28;20050;-59
2024/02/19 08:10:35;;;;;;;0.30;0.30;;;21.30;46.60;;;;;;10356502;28;20439;-59
2024/02/19 08:15:39;;;;;;;0.30;0.28;;;21.40;46.40;;;;;;10354944;28;20408;-58
2024/02/19 08:20:42;;;;;;;0.20;0.20;;;21.30;46.60;;;;;;10348134;28;20045;-58
2024/02/19 08:25:43;;;;;;;0.35;0.30;;;21.20;46.70;;;;;;10358017;28;20781;-58
2024/02/19 08:30:46;;;;;;;0.20;0.20;;;21.20;46.80;;;;;;10364235;28;20516;-57
2024/02/19 08:35:49;;;;;;;0.20;0.20;;;21.30;46.80;;;;;;10361858;28;20134;-59
2024/02/19 08:40:51;;;;;;;0.30;0.30;;;21.30;46.80;;;;;;10357472;28;20056;-56
2024/02/19 08:45:54;;;;;;;0.20;0.20;;;21.20;47.00;;;;;;10355212;28;20046;-57
2024/02/19 08:50:55;;;;;;;0.28;0.28;;;21.20;47.10;;;;;;10360361;28;20046;-53
2024/02/19 08:55:57;;;;;;;0.30;0.30;;;21.20;47.00;;;;;;10365362;28;20048;-55
2024/02/19 09:01:01;;;;;;;0.68;0.30;;;21.10;47.10;;;;;;10360311;28;20125;-55
2024/02/19 09:06:03;;;;;;;0.20;0.20;;;21.20;47.10;;;;;;10356988;28;20574;-58
2024/02/19 09:11:05;;;;;;;0.30;0.30;;;21.20;47.10;;;;;;10361807;28;20042;-52
2024/02/19 09:16:08;;;;;;;0.30;0.30;;;21.10;47.10;;;;;;10360225;28;20092;-58
2024/02/19 09:21:09;;;;;;;0.30;0.20;;;21.10;47.10;;;;;;10353734;28;20514;-59
2024/02/19 09:26:13;;;;;;;0.28;0.28;;;21.00;47.00;;;;;;10349832;28;20133;-59
2024/02/19 09:31:16;;;;;;;0.40;0.28;;;21.10;47.10;;;;;;10347423;28;20034;-58
2024/02/19 09:36:18;;;;;;;0.32;0.30;;;21.00;47.20;;;;;;10352410;28;20047;-60
2024/02/19 09:41:19;;;;;;;0.30;0.30;;;21.10;47.10;;;;;;10353188;28;20050;-59
2024/02/19 09:46:24;;;;;;;0.30;0.30;;;21.00;47.00;;;;;;10356414;28;20128;-59
2024/02/19 09:51:26;;;;;;;0.30;0.20;;;21.00;47.20;;;;;;10357802;28;20447;-59
2024/02/19 09:56:28;;;;;;;0.43;0.40;;;21.10;47.30;;;;;;10351131;28;20524;-57
2024/02/19 10:01:31;;;;;;;0.43;0.25;;;21.20;47.10;;;;;;10359536;28;20526;-57
2024/02/19 10:06:34;;;;;;;0.30;0.30;;;21.10;47.10;;;;;;10359261;28;20539;-56
2024/02/19 10:11:36;;;;;;;0.20;0.20;;;21.00;47.30;;;;;;10356715;28;20042;-59
2024/02/19 10:16:39;;;;;;;0.45;0.30;;;21.10;47.30;;;;;;10353531;28;20129;-56
2024/02/19 10:21:41;;;;;;;0.20;0.20;;;21.10;47.30;;;;;;10352519;28;20042;-58
2024/02/19 10:26:43;;;;;;;0.25;0.20;;;21.10;47.10;;;;;;10357413;28;20108;-59
2024/02/19 10:31:46;;;;;;;0.25;0.25;;;21.10;47.40;;;;;;10359579;28;20141;-55
2024/02/19 10:36:49;;;;;;;0.30;0.30;;;21.00;47.60;;;;;;10359916;28;20046;-56
2024/02/19 10:41:51;;;;;;;0.30;0.30;;;21.00;47.50;;;;;;10359323;28;20100;-57
2024/02/19 10:46:54;;;;;;;0.47;0.32;;;20.90;47.60;;;;;;10356827;28;20050;-55
2024/02/19 10:51:57;;;;;;;0.22;0.22;;;20.80;47.90;;;;;;10356148;28;20838;-52
2024/02/19 10:57:06;;;;;;;0.35;0.30;;;20.80;47.90;;;;;;10354777;28;20377;-58
2024/02/19 11:02:11;;;;;;;0.40;0.30;;;20.80;47.80;;;;;;10362184;28;20081;-55
2024/02/19 11:07:13;;;;;;;0.32;0.30;;;20.80;47.90;;;;;;10359498;28;20088;-56
2024/02/19 11:12:15;;;;;;;0.20;0.20;;;20.80;47.90;;;;;;10355280;28;20052;-56
2024/02/19 11:17:18;;;;;;;0.30;0.30;;;20.80;47.70;;;;;;10366804;28;20128;-57
2024/02/19 11:22:24;;;;;;;0.70;0.30;;;20.80;47.80;;;;;;10365661;28;20060;-53
2024/02/19 11:27:26;;;;;;;0.30;0.30;;;20.80;47.70;;;;;;10364217;28;20504;-57
2024/02/19 11:32:29;;;;;;;0.20;0.20;;;20.90;47.60;;;;;;10357360;28;20050;-55
2024/02/19 11:37:30;;;;;;;0.20;0.20;;;21.00;47.40;;;;;;10357364;28;20534;-55
2024/02/19 11:42:32;;;;;;;0.80;0.40;;;20.90;47.50;;;;;;10358902;28;20497;-59
2024/02/19 11:47:37;;;;;;;0.30;0.30;;;21.00;47.40;;;;;;10358066;28;20514;-52
2024/02/19 11:52:41;;;;;;;0.50;0.30;;;21.10;47.30;;;;;;10358717;28;20062;-55
2024/02/19 11:57:43;;;;;;;0.47;0.30;;;21.10;47.40;;;;;;10356370;28;20129;-58
2024/02/19 12:02:48;;;;;;;0.43;0.30;;;21.10;47.30;;;;;;10352340;28;20410;-57
2024/02/19 12:07:49;;;;;;;0.30;0.30;;;21.20;47.20;;;;;;10343552;28;20050;-57
2024/02/19 12:12:51;;;;;;;0.65;0.30;;;21.30;47.00;;;;;;10350376;28;20432;-53
2024/02/19 12:17:54;;;;;;;0.30;0.20;;;21.20;47.00;;;;;;10351788;28;20564;-53
2024/02/19 12:22:56;;;;;;;0.43;0.30;;;21.30;47.20;;;;;;10355876;28;20050;-55
2024/02/19 12:27:57;;;;;;;0.52;0.30;;;21.30;47.00;;;;;;10357086;28;20050;-53
2024/02/19 12:33:00;;;;;;;0.43;0.40;;;21.20;47.10;;;;;;10360483;28;20042;-60
2024/02/19 12:38:02;;;;;;;0.65;0.40;;;21.30;47.20;;;;;;10353386;28;20049;-58
2024/02/19 12:43:06;;;;;;;0.20;0.20;;;21.20;47.10;;;;;;10355606;28;20133;-58
2024/02/19 12:48:09;;;;;;;0.63;0.30;;;21.20;47.10;;;;;;10352509;28;20053;-58
2024/02/19 12:53:12;;;;;;;0.70;0.30;;;21.10;47.40;;;;;;10347311;28;20052;-58
2024/02/19 12:58:14;;;;;;;0.30;0.30;;;21.00;47.50;;;;;;10355561;28;20061;-58
2024/02/19 13:09:14;;;;;;;0.40;0.30;;;21.00;47.20;;;;;;10348697;28;20492;-59
2024/02/19 13:14:17;;;;;;;0.95;0.30;;;20.90;47.50;;;;;;10354842;28;20073;-57
2024/02/19 13:19:18;;;;;;;0.25;0.25;;;21.00;48.10;;;;;;10347692;28;20088;-56
2024/02/19 13:24:21;;;;;;;0.65;0.40;;;21.00;47.50;;;;;;10345744;28;20038;-56
2024/02/19 13:29:23;;;;;;;0.50;0.30;;;20.90;47.70;;;;;;10343670;28;20049;-57
2024/02/19 13:34:25;;;;;;;1.13;0.40;;;20.90;47.70;;;;;;10351453;28;20120;-58
2024/02/19 13:39:28;;;;;;;0.80;0.32;;;21.10;47.30;;;;;;10354992;28;20088;-56
2024/02/19 13:44:29;;;;;;;0.52;0.32;;;21.50;46.70;;;;;;10360300;28;20050;-59
2024/02/19 13:49:31;;;;;;;0.55;0.35;;;21.50;46.60;;;;;;10354259;28;20419;-59
2024/02/19 13:54:34;;;;;;;0.60;0.40;;;21.60;46.30;;;;;;10349172;28;20043;-59
2024/02/19 13:59:36;;;;;;;0.55;0.30;;;21.70;46.10;;;;;;10354590;28;20084;-59
2024/02/19 14:04:37;;;;;;;0.32;0.30;;;21.70;46.10;;;;;;10346339;28;20046;-58
2024/02/19 14:09:41;;;;;;;0.38;0.38;;;21.60;46.40;;;;;;10355632;28;20055;-58
2024/02/19 14:14:42;;;;;;;0.22;0.22;;;21.60;46.40;;;;;;10354345;28;20491;-59
2024/02/19 14:19:44;;;;;;;0.40;0.30;;;21.70;46.30;;;;;;10353921;28;20048;-59
2024/02/19 14:24:47;;;;;;;0.30;0.30;;;21.60;46.40;;;;;;10350870;28;20051;-59
2024/02/19 14:29:49;;;;;;;0.40;0.30;;;21.90;45.90;;;;;;10350176;28;20057;-59
2024/02/19 14:34:51;;;;;;;0.70;0.50;;;21.80;46.20;;;;;;10346153;28;20049;-57
2024/02/19 14:39:54;;;;;;;0.30;0.30;;;21.70;46.40;;;;;;10350732;28;20042;-59
2024/02/19 14:44:56;;;;;;;0.45;0.35;;;21.80;46.30;;;;;;10349006;28;20058;-58
2024/02/19 14:49:57;;;;;;;0.65;0.43;;;21.90;46.10;;;;;;10349005;28;20126;-59
2024/02/19 14:55:07;;;;;;;0.30;0.30;;;21.90;46.10;;;;;;10354646;28;20042;-59
2024/02/19 15:00:10;;;;;;;0.68;0.43;;;22.00;46.20;;;;;;10349231;28;20389;-59
2024/02/19 15:05:12;;;;;;;0.52;0.30;;;21.90;46.30;;;;;;10352995;28;20393;-57
2024/02/19 15:10:14;;;;;;;0.60;0.40;;;22.00;46.10;;;;;;10350169;28;20424;-59
2024/02/19 15:15:16;;;;;;;0.80;0.40;;;22.00;46.20;;;;;;10352060;28;20045;-59
2024/02/19 15:20:18;;;;;;;0.73;0.50;;;21.90;46.30;;;;;;10362412;28;20052;-58
2024/02/19 15:25:21;;;;;;;0.50;0.40;;;21.90;46.60;;;;;;10362143;28;20129;-59
2024/02/19 15:30:22;;;;;;;0.40;0.40;;;22.00;46.20;;;;;;10361052;28;20045;-58
2024/02/19 15:35:25;;;;;;;0.40;0.40;;;22.00;46.40;;;;;;10364579;28;20519;-58
2024/02/19 15:40:28;;;;;;;0.88;0.40;;;22.00;46.30;;;;;;10363302;28;20049;-57
2024/02/19 15:45:30;;;;;;;0.73;0.40;;;22.10;46.50;;;;;;10357322;28;20049;-57
2024/02/19 15:50:32;;;;;;;0.30;0.30;;;22.10;46.30;;;;;;10356097;28;20041;-58
2024/02/19 15:55:37;;;;;;;0.63;0.40;;;22.10;46.50;;;;;;10362981;28;20130;-56
2024/02/19 16:00:40;;;;;;;0.50;0.30;;;22.10;46.30;;;;;;10355243;28;20073;-58
2024/02/19 16:05:42;;;;;;;0.52;0.30;;;22.10;46.40;;;;;;10364649;28;20415;-58
2024/02/19 16:10:47;;;;;;;0.47;0.40;;;22.10;46.40;;;;;;10363933;28;20061;-56
2024/02/19 16:15:49;;;;;;;0.70;0.40;;;22.10;46.50;;;;;;10360743;28;20049;-58
2024/02/19 16:20:52;;;;;;;0.75;0.40;;;22.20;46.40;;;;;;10362830;28;20045;-59
2024/02/19 16:25:55;;;;;;;0.55;0.38;;;22.20;46.30;;;;;;10363653;28;20104;-57
2024/02/19 16:30:56;;;;;;;0.52;0.45;;;22.20;46.40;;;;;;10359575;28;20148;-58
2024/02/19 16:35:58;;;;;;;0.43;0.35;;;22.20;46.40;;;;;;10359346;28;20042;-59
2024/02/19 16:41:01;;;;;;;0.30;0.30;;;22.20;46.50;;;;;;10357259;28;20048;-58
2024/02/19 16:46:02;;;;;;;0.30;0.30;;;22.20;46.40;;;;;;10355647;28;20050;-59
2024/02/19 16:51:04;;;;;;;0.43;0.40;;;22.20;46.50;;;;;;10356560;28;20076;-59
2024/02/19 16:56:10;;;;;;;0.55;0.40;;;22.20;46.50;;;;;;10352070;28;20038;-57
2024/02/19 17:01:15;;;;;;;0.52;0.40;;;22.30;46.20;;;;;;10362704;28;20057;-57
2024/02/19 17:06:16;;;;;;;0.50;0.40;;;22.40;46.40;;;;;;10359785;28;20518;-58
2024/02/19 17:11:21;;;;;;;1.13;0.50;;;22.30;46.40;;;;;;10357505;28;20504;-58
2024/02/19 17:16:22;;;;;;;0.38;0.30;;;22.40;46.20;;;;;;10354212;28;20124;-59
2024/02/19 17:21:25;;;;;;;0.30;0.30;;;22.30;46.40;;;;;;10355050;28;20050;-59
2024/02/19 17:26:29;;;;;;;0.40;0.40;;;22.30;46.50;;;;;;10356114;28;20562;-57
2024/02/19 17:31:30;;;;;;;0.30;0.30;;;22.30;46.50;;;;;;10311878;28;20649;-59
2024/02/19 17:36:32;;;;;;;0.40;0.30;;;22.30;46.40;;;;;;10361995;28;20411;-59
2024/02/19 17:41:35;;;;;;;0.57;0.30;;;22.40;46.40;;;;;;10363375;28;20420;-59
2024/02/19 17:46:37;;;;;;;0.30;0.30;;;22.40;46.50;;;;;;10356662;28;20050;-56
2024/02/19 17:51:39;;;;;;;0.55;0.40;;;22.40;46.50;;;;;;10350211;28;20510;-58
2024/02/19 17:56:42;;;;;;;0.60;0.40;;;22.50;46.30;;;;;;10349775;28;20550;-58
2024/02/19 18:01:43;;;;;;;1.17;0.40;;;22.50;46.20;;;;;;10347064;28;20050;-56
2024/02/19 18:06:45;;;;;;;0.45;0.40;;;22.50;46.20;;;;;;10357022;28;20046;-59
2024/02/19 18:11:48;;;;;;;0.55;0.45;;;22.50;46.20;;;;;;10360773;28;20142;-59
2024/02/19 18:16:50;;;;;;;0.70;0.50;;;22.50;46.30;;;;;;10358057;28;20042;-58
2024/02/19 18:21:53;;;;;;;0.52;0.50;;;22.60;46.30;;;;;;10356981;28;20052;-59
2024/02/19 18:26:56;;;;;;;0.57;0.50;;;22.60;46.30;;;;;;10360601;28;20129;-58
2024/02/19 18:32:00;;;;;;;0.52;0.40;;;22.70;46.00;;;;;;10360916;28;20120;-58
2024/02/19 18:37:01;;;;;;;0.40;0.40;;;22.70;46.10;;;;;;10357794;28;20111;-59
2024/02/19 18:42:08;;;;;;;0.45;0.43;;;22.60;46.20;;;;;;10361340;28;20048;-57
2024/02/19 18:47:09;;;;;;;1.08;0.60;;;22.50;46.40;;;;;;10357891;28;20046;-57
2024/02/19 18:52:11;;;;;;;1.05;0.40;;;22.60;46.20;;;;;;10359858;28;20046;-58
2024/02/19 18:57:15;;;;;;;0.47;0.40;;;22.70;46.20;;;;;;10365806;28;20054;-57
2024/02/19 19:02:16;;;;;;;0.68;0.40;;;22.70;46.20;;;;;;10366170;28;20125;-58
2024/02/19 19:07:21;;;;;;;0.50;0.50;;;22.70;46.20;;;;;;10359808;28;20046;-59
2024/02/19 19:12:24;;;;;;;0.50;0.43;;;22.70;46.10;;;;;;10357838;28;20511;-58
2024/02/19 19:17:25;;;;;;;0.98;0.43;;;22.70;45.90;;;;;;10357520;28;20043;-59
2024/02/19 19:22:28;;;;;;;0.38;0.30;;;23.00;45.60;;;;;;10358485;28;20053;-59
2024/02/19 19:27:31;;;;;;;0.40;0.40;;;23.00;45.50;;;;;;10363711;28;20138;-58
2024/02/19 19:32:35;;;;;;;0.45;0.30;;;23.00;45.50;;;;;;10361207;28;20401;-59
2024/02/19 19:37:37;;;;;;;0.60;0.50;;;22.90;45.70;;;;;;10365238;28;20053;-59
2024/02/19 19:42:45;;;;;;;0.50;0.40;;;22.90;45.70;;;;;;10361930;28;20108;-58
2024/02/19 19:47:47;;;;;;;0.30;0.30;;;22.80;45.80;;;;;;10358254;28;20053;-59
2024/02/19 19:52:48;;;;;;;0.57;0.40;;;22.70;45.90;;;;;;10364005;28;20049;-58
2024/02/19 19:57:57;;;;;;;0.45;0.35;;;22.50;46.20;;;;;;10359759;28;20046;-58
2024/02/19 20:02:59;;;;;;;0.50;0.50;;;22.50;46.30;;;;;;10365696;28;20065;-59
2024/02/19 20:08:01;;;;;;;0.93;0.50;;;22.50;46.40;;;;;;10366262;28;20071;-60
2024/02/19 20:13:04;;;;;;;1.00;0.50;;;22.60;46.10;;;;;;10359963;28;20133;-58
2024/02/19 20:18:06;;;;;;;0.60;0.40;;;22.50;46.10;;;;;;10359466;28;20631;-59
2024/02/19 20:23:08;;;;;;;0.93;0.55;;;22.40;46.10;;;;;;10357951;28;20038;-58
2024/02/19 20:28:11;;;;;;;0.88;0.40;;;22.30;46.40;;;;;;10352936;28;20061;-57
2024/02/19 20:33:14;;;;;;;0.50;0.30;;;22.30;46.20;;;;;;10357310;28;20057;-56
2024/02/19 20:38:16;;;;;;;0.60;0.50;;;22.40;46.20;;;;;;10357692;28;20048;-59
2024/02/19 20:43:19;;;;;;;0.40;0.40;;;22.30;46.40;;;;;;10362534;28;20068;-58
2024/02/19 20:48:22;;;;;;;0.70;0.43;;;22.40;46.00;;;;;;10358134;28;20056;-59
2024/02/19 20:53:24;;;;;;;0.63;0.35;;;22.30;46.00;;;;;;10360625;28;20500;-59
2024/02/19 20:58:27;;;;;;;0.50;0.50;;;22.30;46.00;;;;;;10358009;28;20481;-59
2024/02/19 21:03:28;;;;;;;0.40;0.40;;;22.30;45.90;;;;;;10360787;28;20459;-58
2024/02/19 21:08:30;;;;;;;0.60;0.45;;;22.30;45.90;;;;;;10359680;28;20492;-58
2024/02/19 21:13:34;;;;;;;0.70;0.50;;;22.30;46.00;;;;;;10355102;28;20523;-59
2024/02/19 21:18:35;;;;;;;0.50;0.40;;;22.20;46.10;;;;;;10358526;28;20050;-59
2024/02/19 21:23:37;;;;;;;0.52;0.40;;;22.20;46.00;;;;;;10355665;28;20042;-58
2024/02/19 21:28:40;;;;;;;0.85;0.50;;;22.10;46.10;;;;;;10353120;28;20042;-58
2024/02/19 21:33:42;;;;;;;0.73;0.50;;;22.20;45.80;;;;;;10356532;28;20046;-56
2024/02/19 21:38:47;;;;;;;0.95;0.60;;;22.30;45.60;;;;;;10355110;28;20097;-58
2024/02/19 21:43:50;;;;;;;1.20;0.50;;;22.40;45.30;;;;;;10348961;28;20042;-55
2024/02/19 21:48:54;;;;;;;0.47;0.40;;;22.40;45.10;;;;;;10346214;28;20056;-55
2024/02/19 21:53:56;;;;;;;0.77;0.50;;;22.30;45.40;;;;;;10348442;28;20053;-51
2024/02/19 21:58:59;;;;;;;0.60;0.40;;;22.30;45.10;;;;;;10352967;28;20060;-55
2024/02/19 22:04:01;;;;;;;0.43;0.43;;;22.30;44.90;;;;;;10354070;28;20447;-54
2024/02/19 22:09:03;;;;;;;1.02;0.47;;;22.40;44.90;;;;;;10360714;28;20092;-53
2024/02/19 22:14:06;;;;;;;0.73;0.40;;;22.40;44.70;;;;;;10357222;28;20134;-55
2024/02/19 22:19:08;;;;;;;0.63;0.57;;;22.40;44.60;;;;;;10350226;28;20053;-57
2024/02/19 22:24:10;;;;;;;0.50;0.43;;;22.40;44.50;;;;;;10349672;28;20042;-53
2024/02/19 22:29:12;;;;;;;0.45;0.40;;;22.40;44.50;;;;;;10343610;28;20052;-51
2024/02/19 22:34:14;;;;;;;0.85;0.40;;;22.40;44.60;;;;;;10348530;28;20135;-53
2024/02/19 22:39:16;;;;;;;0.47;0.40;;;22.20;44.80;;;;;;10353338;28;20052;-56
2024/02/19 22:44:19;;;;;;;1.65;0.40;;;22.20;45.00;;;;;;10351966;28;20046;-56
2024/02/19 22:49:20;;;;;;;0.35;0.35;;;21.90;46.00;;;;;;10350971;28;20038;-55
2024/02/19 22:54:22;;;;;;;0.52;0.40;;;22.00;45.10;;;;;;10350052;28;20044;-55
2024/02/19 22:59:25;;;;;;;0.30;0.30;;;22.00;44.90;;;;;;10342004;28;20133;-57
2024/02/19 23:04:27;;;;;;;0.35;0.30;;;22.00;45.10;;;;;;10342355;28;20378;-53
2024/02/19 23:09:28;;;;;;;0.40;0.40;;;22.00;45.10;;;;;;10343700;28;20660;-56
2024/02/19 23:14:31;;;;;;;0.40;0.40;;;21.90;45.10;;;;;;10353930;28;20497;-54
2024/02/19 23:19:33;;;;;;;0.47;0.40;;;21.70;45.60;;;;;;10356311;28;20512;-55
2024/02/19 23:24:34;;;;;;;0.70;0.30;;;21.70;45.60;;;;;;10355490;28;20046;-54
2024/02/19 23:29:37;;;;;;;0.47;0.40;;;21.70;45.60;;;;;;10351657;28;20042;-54
2024/02/19 23:34:40;;;;;;;1.08;0.43;;;21.70;45.60;;;;;;10349018;28;20049;-55
2024/02/19 23:39:42;;;;;;;0.30;0.30;;;21.80;45.50;;;;;;10347234;28;20056;-55
2024/02/19 23:44:45;;;;;;;0.50;0.40;;;21.60;45.70;;;;;;10347766;28;20042;-54
2024/02/19 23:49:47;;;;;;;0.73;0.38;;;21.60;45.80;;;;;;10353127;28;20053;-55
2024/02/19 23:54:49;;;;;;;0.60;0.45;;;21.60;45.60;;;;;;10359493;28;20060;-55
2024/02/19 23:59:51;;;;;;;0.32;0.32;;;21.70;45.60;;;;;;10356047;28;20054;-59
